• Join FlightAware (Why Join?)
  • Login
  • US Flag 
11:26PM EDT


 

Airport Tracker/Info


-or-


 

Live Flight TrackerFlight Track Log ✈ AFR6725 ✈ 08-Sep-2013 ✈ MMMX / MEX - KIAH

Flight Track Log - Related Links

Times and Time Zones

All times are in EDT time to prevent confusion due to time zone crossing. See the AFR6725 flight status page for this flight to view local times or setup timezone preferences in your user account.

Time Position Orientation Groundspeed Altitude Reporting Facility
EDT Latitude Longitude Course Direction KTS MPH feet Rate Location/Type
03:46AM 23.8400 -97.5050 12° North 473 544 37,000  Level FlightAware
03:46AM 23.9160 -97.4880 12° North 471 542 37,000  Level FlightAware
03:47AM 23.9870 -97.4710 12° North 471 542 37,000  Level FlightAware
03:47AM 24.0770 -97.4500 12° North 469 540 37,000  Level FlightAware
03:48AM 24.1470 -97.4330 12° North 468 539 37,000  Level FlightAware
03:49AM 24.2210 -97.4160 12° North 468 539 37,000  Level FlightAware
03:49AM 24.2910 -97.4000 12° North 468 539 37,000  Level FlightAware
03:50AM 24.3690 -97.3810 13° North 468 539 37,000  Level FlightAware
03:50AM 24.4460 -97.3630 12° North 467 537 37,000  Level FlightAware
03:51AM 24.5250 -97.3450 12° North 467 537 37,000  Level FlightAware
03:51AM 24.5970 -97.3270 13° North 466 536 37,000  Level FlightAware
03:52AM 24.6710 -97.3100 12° North 466 536 37,000  Level FlightAware
03:53AM 24.7450 -97.2920 12° North 466 536 37,000  Level FlightAware
03:53AM 24.8220 -97.2740 12° North 466 536 37,000  Level FlightAware
03:54AM 24.8890 -97.2580 12° North 466 536 37,000  Level FlightAware
03:54AM 24.9670 -97.2400 12° North 466 536 37,000  Level FlightAware
03:55AM 25.0430 -97.2220 12° North 466 536 37,000  Level FlightAware
03:55AM 25.1070 -97.2060 13° North 466 536 37,000  Level FlightAware
03:56AM 25.1860 -97.1880 12° North 466 536 37,000  Level FlightAware
03:57AM 25.2630 -97.1690 13° North 465 535 37,000  Level FlightAware
03:57AM 25.3390 -97.1510 12° North 464 534 37,000  Level FlightAware
03:58AM 25.4150 -97.1330 12° North 465 535 37,000  Level FlightAware
03:58AM 25.4820 -97.1170 12° North 466 536 37,000  Level FlightAware
03:59AM 25.5590 -97.0980 13° North 467 537 37,000  Level FlightAware
04:00AM 25.6280 -97.0830 11° North 467 537 37,000  Level FlightAware
04:00AM 25.7080 -97.0650 11° North 468 539 37,000  Level FlightAware
04:01AM 25.7840 -97.0490 11° North 471 542 37,000  Level FlightAware
04:01AM 25.8540 -97.0330 12° North 472 543 37,000  Level FlightAware
04:02AM 25.9310 -97.0150 12° North 472 543 37,000  Level FlightAware
04:03AM 26.0090 -96.9980 11° North 472 543 37,000  Level FlightAware
04:03AM 26.0860 -96.9800 12° North 472 543 37,000  Level FlightAware
04:04AM 26.1530 -96.9650 11° North 472 543 37,000  Level FlightAware
04:04AM 26.2425 -96.9443 12° North 473 544 37,000  Level FlightAware ADS-B
04:05AM 26.3090 -96.9290 12° North 472 543 37,000  Level FlightAware
04:06AM 26.3860 -96.9120 11° North 471 542 37,000  Level FlightAware
04:06AM 26.4038 -96.9075 13° North 471 542 37,000  Level FlightAware ADS-B
04:06AM 26.4690 -96.8927 11° North 470 541 37,000  Level FlightAware ADS-B
04:07AM 26.5407 -96.8763 12° North 470 541 37,000  Level FlightAware ADS-B
04:07AM 26.6055 -96.8614 12° North 470 541 37,000  Level FlightAware ADS-B
04:08AM 26.6700 -96.8465 12° North 470 541 37,000  Level FlightAware ADS-B
04:08AM 26.7343 -96.8318 12° North 471 542 37,000  Level FlightAware ADS-B
04:09AM 26.7994 -96.8167 12° North 470 541 37,000  Level FlightAware ADS-B
04:09AM 26.8647 -96.8015 12° North 472 543 37,000  Level FlightAware ADS-B
04:10AM 26.9300 -96.7865 12° North 472 543 37,000  Level FlightAware ADS-B
04:10AM 26.9944 -96.7717 12° North 472 543 37,000  Level FlightAware ADS-B
04:11AM 27.0592 -96.7568 12° North 472 543 37,000  Level FlightAware ADS-B
04:11AM 27.1368 -96.7389 12° North 471 542 37,000  Level FlightAware ADS-B
04:12AM 27.2087 -96.7222 12° North 470 541 37,000  Level FlightAware ADS-B
04:12AM 27.2738 -96.7072 12° North 471 542 37,000  Level FlightAware ADS-B
04:13AM 27.3399 -96.6917 12° North 472 543 37,000  Level FlightAware ADS-B
04:13AM 27.4041 -96.6766 12° North 472 543 37,000  Level FlightAware ADS-B
04:14AM 27.4702 -96.6612 12° North 472 543 37,000  Level FlightAware ADS-B
04:14AM 27.5345 -96.6463 12° North 473 544 37,000  Level FlightAware ADS-B
04:15AM 27.5999 -96.6311 12° North 472 543 37,000  Level FlightAware ADS-B
04:15AM 27.6655 -96.6158 12° North 470 541 37,000  Level FlightAware ADS-B
04:16AM 27.7306 -96.6005 12° North 470 541 37,000  Level FlightAware ADS-B
04:16AM 27.7950 -96.5853 12° North 470 541 37,000  Level FlightAware ADS-B
04:17AM 27.8600 -96.5701 12° North 470 541 37,000  Level FlightAware ADS-B
04:17AM 27.9241 -96.5550 12° North 469 540 37,000 -240 Level FlightAware ADS-B
04:18AM 27.9877 -96.5401 12° North 457 526 36,800 -1,140 Descending FlightAware ADS-B
04:19AM 28.0500 -96.5254 12° North 447 514 35,900 -1,980 Descending FlightAware ADS-B
04:19AM 28.1123 -96.5106 12° North 442 509 34,800 -2,040 Descending FlightAware ADS-B
04:20AM 28.1737 -96.4962 12° North 436 502 33,800 -1,980 Descending FlightAware ADS-B
04:20AM 28.2398 -96.4805 12° North 432 497 32,700 2,400 Descending FlightAware ADS-B
04:21AM 28.2860 -96.4750 North 469 540 37,000 -1,980 Climbing FlightAware
04:22AM 28.4084 -96.4407 14° North 423 487 29,800 -5,940 Descending FlightAware ADS-B
04:22AM 28.4890 -96.4210 12° North 407 468 28,400 -1,920 Descending FlightAware
04:23AM 28.5440 -96.4090 11° North 401 461 27,400 -1,800 Descending FlightAware
04:23AM 28.6120 -96.3860 17° North 398 458 26,400 -1,380 Descending FlightAware
04:24AM 28.6700 -96.3460 31° Northeast 385 443 25,700 -1,500 Descending FlightAware
04:25AM 28.7160 -96.3100 34° Northeast 381 438 24,700 -1,740 Descending FlightAware
04:25AM 28.7670 -96.2710 34° Northeast 374 430 23,800 -1,680 Descending FlightAware
04:26AM 28.8200 -96.2300 34° Northeast 368 423 22,700 -1,740 Descending FlightAware
04:26AM 28.8690 -96.1930 33° Northeast 360 414 21,800 -1,680 Descending FlightAware
04:27AM 28.9150 -96.1570 34° Northeast 355 409 20,800 -1,680 Descending FlightAware
04:28AM 28.9630 -96.1210 33° Northeast 350 403 19,900 -1,620 Descending FlightAware
04:28AM 29.0100 -96.0840 35° Northeast 346 398 18,900 -1,680 Descending FlightAware
04:29AM 29.0550 -96.0500 33° Northeast 344 396 18,000 -1,620 Descending FlightAware
04:29AM 29.1000 -96.0150 34° Northeast 339 390 17,100 -1,620 Descending FlightAware
04:30AM 29.1480 -95.9770 35° Northeast 333 383 16,100 -1,620 Descending FlightAware
04:30AM 29.1920 -95.9440 33° Northeast 330 380 15,200 -1,500 Descending FlightAware
04:31AM 29.2310 -95.9040 42° Northeast 326 375 14,400 -1,500 Descending FlightAware
04:32AM 29.2690 -95.8620 44° Northeast 321 369 13,500 -1,260 Descending FlightAware
04:32AM 29.3040 -95.8250 43° Northeast 307 353 13,000 -1,140 Descending FlightAware
04:33AM 29.3410 -95.7850 43° Northeast 301 346 12,200 -1,320 Descending FlightAware
04:33AM 29.3780 -95.7450 43° Northeast 299 344 11,400 -1,380 Descending FlightAware
04:34AM 29.4130 -95.7070 43° Northeast 296 341 10,600 -1,260 Descending FlightAware
04:34AM 29.4450 -95.6730 43° Northeast 294 338 10,000 -1,140 Descending FlightAware
04:35AM 29.4710 -95.6440 44° Northeast 293 337 9,500 -1,200 Descending FlightAware
04:35AM 29.4880 -95.6270 41° Northeast 291 335 9,200 -960 Descending FlightAware
04:36AM 29.5100 -95.6040 42° Northeast 289 333 8,900 -1,020 Descending FlightAware
04:36AM 29.5290 -95.5840 42° Northeast 288 331 8,500 -1,080 Descending FlightAware
04:36AM 29.5389 -95.5732 44° Northeast 287 330 8,400 -960 Descending FlightAware ADS-B
04:36AM 29.5540 -95.5573 42° Northeast 286 329 8,100 -1,020 Descending FlightAware ADS-B
04:37AM 29.5686 -95.5420 42° Northeast 284 327 7,900 -840 Descending FlightAware ADS-B
04:37AM 29.5832 -95.5264 43° Northeast 283 326 7,700 -840 Descending FlightAware ADS-B
04:37AM 29.5975 -95.5113 43° Northeast 282 325 7,500 -1,020 Descending FlightAware ADS-B
04:37AM 29.6125 -95.4954 43° Northeast 280 322 7,200 -1,020 Descending FlightAware ADS-B
04:38AM 29.6270 -95.4801 43° Northeast 279 321 7,000 -780 Descending FlightAware ADS-B
04:38AM 29.6491 -95.4564 43° Northeast 276 318 6,700 -900 Descending FlightAware ADS-B
04:38AM 29.6654 -95.4265 58° Northeast 277 319 6,300 -1,080 Descending FlightAware ADS-B
04:38AM 29.6683 -95.4204 61° Northeast 272 313 6,200 -840 Descending FlightAware ADS-B
04:39AM 29.6785 -95.3981 62° Northeast 267 307 6,000 -360 Descending FlightAware ADS-B
04:39AM 29.6875 -95.3786 62° Northeast 264 304 6,000  Level FlightAware ADS-B
04:39AM 29.6981 -95.3556 62° Northeast 260 299 6,000  Level FlightAware ADS-B
04:40AM 29.7065 -95.3371 62° Northeast 260 299 6,000  Level FlightAware ADS-B
04:40AM 29.7154 -95.3177 62° Northeast 262 302 6,000  Level FlightAware ADS-B
04:40AM 29.7248 -95.2969 63° Northeast 260 299 6,000  Level FlightAware ADS-B
04:40AM 29.7337 -95.2775 62° Northeast 264 304 6,000  Level FlightAware ADS-B
04:41AM 29.7429 -95.2573 62° Northeast 262 302 6,000  Level FlightAware ADS-B
04:41AM 29.7522 -95.2372 62° Northeast 262 302 6,000  Level FlightAware ADS-B
04:41AM 29.7612 -95.2176 62° Northeast 262 302 6,000  Level FlightAware ADS-B
04:41AM 29.7697 -95.1989 62° Northeast 261 300 6,000 -480 Level FlightAware ADS-B
04:42AM 29.7773 -95.1826 62° Northeast 258 297 5,800 -660 Descending FlightAware ADS-B
04:42AM 29.7855 -95.1648 62° Northeast 250 288 5,700 -780 Descending FlightAware ADS-B
04:42AM 29.7937 -95.1469 62° Northeast 246 283 5,400 -1,020 Descending FlightAware ADS-B
04:42AM 29.7979 -95.1379 62° Northeast 245 282 5,300 -1,020 Descending FlightAware ADS-B
04:42AM 29.8003 -95.1333 59° Northeast 246 283 5,200 -1,500 Descending FlightAware ADS-B
04:42AM 29.8034 -95.1286 53° Northeast 247 284 5,100 -1,200 Descending FlightAware ADS-B
04:43AM 29.8080 -95.1231 46° Northeast 248 285 5,000 -1,200 Descending FlightAware ADS-B
04:43AM 29.8212 -95.1095 42° Northeast 248 285 4,700 -1,200 Descending FlightAware ADS-B
04:43AM 29.8347 -95.0964 40° Northeast 247 284 4,400 -1,020 Descending FlightAware ADS-B
04:43AM 29.8477 -95.0836 40° Northeast 246 283 4,200 -900 Descending FlightAware ADS-B
04:44AM 29.8587 -95.0729 40° Northeast 245 282 4,000 -660 Descending FlightAware ADS-B
04:44AM 29.8719 -95.0599 40° Northeast 243 280 3,900  Descending FlightAware ADS-B
04:44AM 29.8847 -95.0472 41° Northeast 230 265 4,000 240 Climbing FlightAware ADS-B
04:44AM 29.8889 -95.0431 40° Northeast 226 260 4,000  Level FlightAware ADS-B
04:44AM 29.8921 -95.0406 34° Northeast 225 259 4,000 -1,020 Level FlightAware ADS-B
04:44AM 29.8949 -95.0387 30° Northeast 225 259 3,900 -1,740 Descending FlightAware ADS-B
04:44AM 29.8980 -95.0372 23° Northeast 226 260 3,800 -900 Descending FlightAware ADS-B
04:44AM 29.9012 -95.0361 17° North 227 261 3,800 -900 Level FlightAware ADS-B
04:44AM 29.9052 -95.0353 10° North 229 264 3,700 -2,280 Descending FlightAware ADS-B
04:44AM 29.9093 -95.0352 North 231 266 3,500 -2,580 Descending FlightAware ADS-B
04:45AM 29.9134 -95.0357 354° North 233 268 3,400 -1,740 Descending FlightAware ADS-B
04:45AM 29.9170 -95.0367 346° North 235 270 3,300 -1,740 Descending FlightAware ADS-B
04:45AM 29.9201 -95.0379 341° North 236 272 3,200 -1,740 Descending FlightAware ADS-B
04:45AM 29.9248 -95.0403 336° Northwest 236 272 3,100 -1,380 Descending FlightAware ADS-B
04:45AM 29.9296 -95.0429 335° Northwest 233 268 3,000 -480 Descending FlightAware ADS-B
04:45AM 29.9372 -95.0475 332° Northwest 228 262 3,000  Level FlightAware ADS-B
04:45AM 29.9484 -95.0542 333° Northwest 230 265 3,000  Level FlightAware ADS-B
04:45AM 29.9516 -95.0563 330° Northwest 230 265 3,000  Level FlightAware ADS-B
04:45AM 29.9548 -95.0589 325° Northwest 231 266 3,000  Level FlightAware ADS-B
04:45AM 29.9573 -95.0613 320° Northwest 232 267 3,000  Level FlightAware ADS-B
04:45AM 29.9595 -95.0638 315° West 233 268 3,000  Level FlightAware ADS-B
04:45AM 29.9619 -95.0671 310° West 234 269 3,000  Level FlightAware ADS-B
04:45AM 29.9640 -95.0708 303° West 234 269 3,000  Level FlightAware ADS-B
04:46AM 29.9656 -95.0745 297° West 235 270 3,000  Level FlightAware ADS-B
04:46AM 29.9673 -95.0793 292° West 235 270 3,000  Level FlightAware ADS-B
04:46AM 29.9705 -95.0895 290° West 238 274 3,000  Level FlightAware ADS-B
04:46AM 29.9739 -95.0991 292° West 240 276 3,000  Level FlightAware ADS-B
04:46AM 29.9755 -95.1040 291° West 239 275 3,000  Level FlightAware ADS-B
04:46AM 29.9765 -95.1080 286° West 240 276 3,000  Level FlightAware ADS-B
04:46AM 29.9774 -95.1127 282° West 236 272 3,000 840 Level FlightAware ADS-B
04:46AM 29.9779 -95.1165 279° West 233 268 3,100 960 Climbing FlightAware ADS-B
04:46AM 29.9782 -95.1204 275° West 230 265 3,100  Level FlightAware ADS-B
04:46AM 29.9783 -95.1256 271° West 225 259 3,100 -960 Level FlightAware ADS-B
04:46AM 29.9784 -95.1426 270° West 220 253 2,800 -1,020 Descending FlightAware ADS-B
04:47AM 29.9782 -95.1463 266° West 219 252 2,800 -1,140 Level FlightAware ADS-B
04:47AM 29.9777 -95.1554 266° West 220 253 2,600 -1,320 Descending FlightAware ADS-B
04:47AM 29.9773 -95.1735 269° West 214 246 2,300 -1,020 Descending FlightAware ADS-B
04:47AM 29.9774 -95.1912 270° West 206 237 2,100 -1,020 Descending FlightAware ADS-B
04:48AM 29.9778 -95.2124 271° West 194 223 1,700 -1,200 Descending FlightAware ADS-B
04:48AM 29.9778 -95.2215 270° West 184 212 1,500 -1,200 Descending FlightAware ADS-B
04:48AM 29.9777 -95.2368 270° West 174 200 1,200 -1,080 Descending FlightAware ADS-B
04:48AM 29.9778 -95.2437 271° West 166 191 1,100 -1,140 Descending FlightAware ADS-B
04:48AM 29.9777 -95.2507 269° West 162 186 900 -960 Descending FlightAware ADS-B
04:48AM 29.9777 -95.2595 270° West 160 184 800 -720 Descending FlightAware ADS-B
04:48AM 29.9776 -95.2661 269° West 158 182 700 -960 Descending FlightAware ADS-B
04:49AM 29.9776 -95.2756 270° West 158 182 500 -900 Descending FlightAware ADS-B
04:49AM 29.9776 -95.2893 270° West 161 185 300 -780 Descending FlightAware ADS-B
04:49AM 29.9776 -95.3024 270° West 158 182 100 -840 Descending FlightAware ADS-B